M I D A S
Marine Information and Data Acquisition System
Tripno 2170 of the Zeeleeuw from 2011-08-24 07:46:48 to 2011-08-24 18:34:13
Back to CruiseResearch ActivitiesStationsMapUnderway DataData graphs

EquipmentUnitsComment
TimeDGPSUTC
LatitudeDGPSDM.mWGS84
LongitudeDGPSDM.mWGS84
HeadingGyrodeg 
SOGDGPSknotsSpeed over ground
COGDGPSdegCourse over ground
DepthEcho soundermeters200 kHz
Missing or incorrect values are displayed as -999
Navigation data collected by the RV Zeeleeuw from 2011-08-24 07:37:39 to 2011-08-24 18:44:02
                                                                                    Next 1000 lines
Time Latitude Longitude Heading SOG COG Depth
2011-08-24 07:37:49 51°13.636 2°56.013 110.6 1.5 292 9.3
2011-08-24 07:37:54 51°13.637 2°56.009 110.6 1.8 293 9.5
2011-08-24 07:37:59 51°13.638 2°56.004 110.6 2.2 292 9.7
2011-08-24 07:38:04 51°13.64 2°55.999 110.6 2.6 293 -999
2011-08-24 07:38:10 51°13.642 2°55.992 110.5 2.9 293 -999
2011-08-24 07:38:16 51°13.644 2°55.984 109.8 3 291 -999
2011-08-24 07:38:22 51°13.645 2°55.977 109.2 3 290 -999
2011-08-24 07:38:27 51°13.646 2°55.97 108.5 3 288 -999
2011-08-24 07:38:32 51°13.648 2°55.964 107.9 3 289 -999
2011-08-24 07:38:38 51°13.649 2°55.956 107.7 3.2 287 -999
2011-08-24 07:38:43 51°13.651 2°55.95 108.2 3.2 289 -999
2011-08-24 07:38:48 51°13.653 2°55.943 109 3.2 288 -999
2011-08-24 07:38:52 51°13.654 2°55.938 109.9 3.3 289 -999
2011-08-24 07:38:57 51°13.657 2°55.931 111.1 3.5 289 -999
2011-08-24 07:39:03 51°13.66 2°55.923 112.2 3.6 291 -999
2011-08-24 07:39:08 51°13.663 2°55.916 113 3.8 292 -999
2011-08-24 07:39:12 51°13.665 2°55.91 114 4 292 -999
2011-08-24 07:39:18 51°13.668 2°55.9 115.2 4.2 294 -999
2011-08-24 07:39:22 51°13.67 2°55.893 116.4 4.3 295 -999
2011-08-24 07:39:28 51°13.672 2°55.882 117.3 4.4 297 -999
2011-08-24 07:39:32 51°13.674 2°55.875 118.2 4.5 297 -999
2011-08-24 07:39:37 51°13.677 2°55.866 119.1 4.6 299 -999
2011-08-24 07:39:42 51°13.68 2°55.857 120 4.7 300 -999
2011-08-24 07:39:48 51°13.684 2°55.846 120.9 4.8 301 -999
2011-08-24 07:39:52 51°13.686 2°55.838 121.7 4.9 301 -999
2011-08-24 07:39:58 51°13.691 2°55.827 122.4 5 303 -999
2011-08-24 07:40:03 51°13.695 2°55.818 122.8 5.1 302 -999
2011-08-24 07:40:07 51°13.698 2°55.81 123.3 5.1 303 -999
2011-08-24 07:40:12 51°13.701 2°55.8 123.7 5.2 303 -999
2011-08-24 07:40:18 51°13.706 2°55.789 124.1 5.2 304 -999
2011-08-24 07:40:23 51°13.71 2°55.779 124.8 5.2 304 -999
2011-08-24 07:40:27 51°13.713 2°55.772 125.6 5.2 305 -999
2011-08-24 07:40:32 51°13.718 2°55.762 126.5 5.2 305 -999
2011-08-24 07:40:38 51°13.723 2°55.751 127.7 5.2 307 -999
2011-08-24 07:40:43 51°13.727 2°55.742 129 5.2 308 -999
2011-08-24 07:40:48 51°13.732 2°55.734 130.3 5.1 309 -999
2011-08-24 07:40:52 51°13.735 2°55.727 131.6 5 310 -999
2011-08-24 07:40:57 51°13.74 2°55.719 132.9 4.8 311 -999
2011-08-24 07:41:03 51°13.745 2°55.709 134.4 4.7 313 -999
2011-08-24 07:41:08 51°13.749 2°55.702 136.2 4.6 314 -999
2011-08-24 07:41:12 51°13.753 2°55.696 138 4.6 315 -999
2011-08-24 07:41:17 51°13.758 2°55.69 140 4.5 318 -999
2011-08-24 07:41:22 51°13.762 2°55.683 142.3 4.4 320 -999
2011-08-24 07:41:28 51°13.768 2°55.676 144.6 4.3 322 -999
2011-08-24 07:41:32 51°13.772 2°55.672 147.2 4.4 324 -999
2011-08-24 07:41:37 51°13.777 2°55.666 149.5 4.6 327 -999
2011-08-24 07:41:42 51°13.783 2°55.661 151.8 4.9 330 -999
2011-08-24 07:41:48 51°13.79 2°55.654 154.2 5.1 332 -999
2011-08-24 07:41:52 51°13.795 2°55.65 156.9 5.2 335 -999
2011-08-24 07:41:58 51°13.804 2°55.645 159 5.5 337 -999
2011-08-24 07:42:02 51°13.809 2°55.641 161.9 5.6 340 -999
2011-08-24 07:42:07 51°13.817 2°55.638 164.1 5.7 342 -999
2011-08-24 07:42:12 51°13.825 2°55.634 166.3 5.8 345 -999
2011-08-24 07:42:18 51°13.834 2°55.631 168 5.7 347 -999
2011-08-24 07:42:23 51°13.842 2°55.628 170.6 5.6 349 -999
2011-08-24 07:42:27 51°13.848 2°55.626 172.6 5.5 350 -999
2011-08-24 07:42:32 51°13.855 2°55.624 174.6 5.4 352 -999
2011-08-24 07:42:38 51°13.864 2°55.622 176.3 5.3 354 -999
2011-08-24 07:42:43 51°13.871 2°55.622 178.9 5.3 356 -999
2011-08-24 07:42:48 51°13.878 2°55.621 181.5 5.2 359 -999
2011-08-24 07:42:52 51°13.884 2°55.621 183.9 5.1 -999 -999
2011-08-24 07:42:58 51°13.892 2°55.622 185.9 4.8 3 -999
2011-08-24 07:43:03 51°13.898 2°55.623 188.8 4.6 5 -999
2011-08-24 07:43:08 51°13.904 2°55.624 191.2 4.4 6 -999
2011-08-24 07:43:12 51°13.909 2°55.625 193.4 4.4 8 -999
2011-08-24 07:43:17 51°13.915 2°55.627 195.3 4.3 11 13.6
2011-08-24 07:43:22 51°13.92 2°55.629 197.4 4.1 13 13.4
2011-08-24 07:43:28 51°13.926 2°55.632 199.5 3.8 16 -999
2011-08-24 07:43:32 51°13.93 2°55.634 202.4 3.6 17 -999
2011-08-24 07:43:37 51°13.935 2°55.636 205 3.4 19 13.7
2011-08-24 07:43:42 51°13.939 2°55.639 206.7 3.3 22 13.5
2011-08-24 07:43:48 51°13.944 2°55.642 208.3 3.1 23 13.6
2011-08-24 07:43:52 51°13.947 2°55.644 209.8 3 24 13.3
2011-08-24 07:43:57 51°13.95 2°55.647 211.6 2.8 25 14.1
2011-08-24 07:44:01 51°13.952 2°55.649 213.4 2.4 27 14.2
2011-08-24 07:44:07 51°13.955 2°55.651 215.5 2.1 29 14.3
2011-08-24 07:44:12 51°13.958 2°55.653 218 1.8 28 14.3
2011-08-24 07:44:16 51°13.959 2°55.654 220.7 1.5 30 14.3
2011-08-24 07:44:21 51°13.96 2°55.655 223.4 0.9 17 14.3
2011-08-24 07:44:26 51°13.961 2°55.655 226.4 0.5 11 14.2
2011-08-24 07:44:31 51°13.961 2°55.654 230.7 0.5 326 14.3
2011-08-24 07:44:36 51°13.961 2°55.653 235.5 0.5 275 14.2
2011-08-24 07:44:40 51°13.961 2°55.651 240.6 0.9 279 14.2
2011-08-24 07:44:45 51°13.961 2°55.649 246.1 1.2 264 14.1
2011-08-24 07:44:50 51°13.961 2°55.645 252.1 1.7 270 14
2011-08-24 07:44:55 51°13.961 2°55.64 258.7 2.1 271 13.8
2011-08-24 07:45:00 51°13.962 2°55.635 265.9 2.4 278 13.9
2011-08-24 07:45:04 51°13.962 2°55.63 273.4 2.8 285 14
2011-08-24 07:45:09 51°13.964 2°55.624 281 3 287 13.8
2011-08-24 07:45:15 51°13.966 2°55.616 288.3 3.5 297 13.7
2011-08-24 07:45:19 51°13.968 2°55.61 295 3.9 300 13.8
2011-08-24 07:45:24 51°13.972 2°55.602 300.9 4.3 305 13.7
2011-08-24 07:45:29 51°13.976 2°55.594 307 4.8 310 13.5
2011-08-24 07:45:34 51°13.982 2°55.586 313.1 5.3 316 13.5
2011-08-24 07:45:39 51°13.988 2°55.578 318.2 5.9 320 13.1
2011-08-24 07:45:44 51°13.995 2°55.569 321.1 6.3 321 13.5
2011-08-24 07:45:48 51°14 2°55.561 323.3 6.7 324 13.5
2011-08-24 07:45:54 51°14.01 2°55.55 325.2 7.2 325 13.5
2011-08-24 07:45:59 51°14.019 2°55.541 326.1 7.6 325 13.5
2011-08-24 07:46:04 51°14.028 2°55.532 326.9 7.9 325 13.4
2011-08-24 07:46:09 51°14.038 2°55.522 327.7 8.2 327 13.4
2011-08-24 07:46:14 51°14.047 2°55.511 328 8.5 326 13.4
2011-08-24 07:46:20 51°14.059 2°55.498 327.5 8.8 326 -999
2011-08-24 07:46:25 51°14.07 2°55.487 328.1 9 327 13.4
2011-08-24 07:46:30 51°14.08 2°55.476 329 9.3 328 13.4
2011-08-24 07:46:36 51°14.093 2°55.462 329.1 9.5 327 -999
2011-08-24 07:46:40 51°14.103 2°55.453 329.7 9.6 329 13.3
2011-08-24 07:46:45 51°14.114 2°55.443 331.2 9.7 330 -999
2011-08-24 07:46:51 51°14.128 2°55.429 331.5 9.9 329 13.2
2011-08-24 07:46:56 51°14.14 2°55.418 331.1 10 330 -999
2011-08-24 07:47:01 51°14.153 2°55.407 332.3 10.1 331 13.2
2011-08-24 07:47:06 51°14.165 2°55.396 332.6 10.2 329 13.1
2011-08-24 07:47:11 51°14.177 2°55.385 331.8 10.3 330 13.2
2011-08-24 07:47:16 51°14.19 2°55.373 331.4 10.4 330 13.2
2011-08-24 07:47:21 51°14.202 2°55.361 331.8 10.4 329 13.2
2011-08-24 07:47:26 51°14.214 2°55.35 331.6 10.5 329 13.2
2011-08-24 07:47:31 51°14.227 2°55.338 331.6 10.6 330 13.1
2011-08-24 07:47:36 51°14.24 2°55.326 331.7 10.6 329 -999
2011-08-24 07:47:42 51°14.256 2°55.312 331.8 10.7 331 -999
2011-08-24 07:47:48 51°14.271 2°55.298 331.8 10.7 331 -999
2011-08-24 07:47:52 51°14.282 2°55.289 332.5 10.7 331 -999
2011-08-24 07:47:57 51°14.295 2°55.277 332.7 10.8 330 13.1
2011-08-24 07:48:03 51°14.311 2°55.263 332.6 10.9 329 13.2
2011-08-24 07:48:08 51°14.324 2°55.25 331.1 11 328 -999
2011-08-24 07:48:12 51°14.334 2°55.24 330.6 11 330 -999
2011-08-24 07:48:17 51°14.347 2°55.227 331.3 11.1 330 13.1
2011-08-24 07:48:22 51°14.36 2°55.215 331.4 11.1 330 -999
2011-08-24 07:48:28 51°14.376 2°55.201 331.1 11.1 331 13.1
2011-08-24 07:48:32 51°14.387 2°55.191 332.2 11.1 330 13.1
2011-08-24 07:48:37 51°14.4 2°55.178 331.8 11.1 327 12.8
2011-08-24 07:48:42 51°14.414 2°55.165 330.4 11.2 327 13.2
2011-08-24 07:48:47 51°14.427 2°55.152 329.6 11.3 328 13.2
2011-08-24 07:48:52 51°14.439 2°55.138 329.6 11.3 327 13.1
2011-08-24 07:48:57 51°14.453 2°55.124 329.4 11.2 328 13.1
2011-08-24 07:49:02 51°14.466 2°55.111 329.7 11.3 327 13.2
2011-08-24 07:49:07 51°14.48 2°55.098 329.9 11.4 328 13.2
2011-08-24 07:49:12 51°14.493 2°55.084 329.9 11.4 328 13.3
2011-08-24 07:49:16 51°14.504 2°55.074 329.7 11.4 329 13.3
2011-08-24 07:49:21 51°14.518 2°55.062 330.4 11.5 329 13.3
2011-08-24 07:49:26 51°14.532 2°55.048 330.7 11.6 329 13.8
2011-08-24 07:49:31 51°14.545 2°55.035 330.1 11.6 329 13.8
2011-08-24 07:49:36 51°14.559 2°55.022 329.8 11.6 329 13.7
2011-08-24 07:49:40 51°14.57 2°55.011 329.7 11.6 330 13.7
2011-08-24 07:49:45 51°14.584 2°54.999 329.6 11.6 330 13.6
2011-08-24 07:49:50 51°14.599 2°54.986 329.6 11.6 329 13.8
2011-08-24 07:49:55 51°14.613 2°54.973 329.3 11.6 329 13.8
2011-08-24 07:50:00 51°14.625 2°54.959 327.6 11.6 327 13.5
2011-08-24 07:50:05 51°14.638 2°54.944 325 11.4 326 13.7
2011-08-24 07:50:09 51°14.648 2°54.932 322.4 11.3 322 13.7
2011-08-24 07:50:14 51°14.66 2°54.916 318.8 11.1 318 13.8
2011-08-24 07:50:20 51°14.672 2°54.894 314.3 11 313 13.7
2011-08-24 07:50:24 51°14.68 2°54.879 309.6 10.8 310 13.6
2011-08-24 07:50:29 51°14.688 2°54.86 305.3 10.7 306 13.6
2011-08-24 07:50:34 51°14.696 2°54.84 301.5 10.6 302 13.8
2011-08-24 07:50:39 51°14.703 2°54.819 297.7 10.6 298 13.6
2011-08-24 07:50:44 51°14.708 2°54.798 293.8 10.7 294 13.5
2011-08-24 07:50:49 51°14.715 2°54.776 291 10.8 292 13.6
2011-08-24 07:50:54 51°14.719 2°54.753 288.9 10.8 289 13.5
2011-08-24 07:50:59 51°14.723 2°54.731 285 10.8 284 13.5
2011-08-24 07:51:04 51°14.727 2°54.707 281.1 11 281 13.3
2011-08-24 07:51:09 51°14.729 2°54.683 278.6 11.1 279 13.3
2011-08-24 07:51:14 51°14.731 2°54.659 276.8 11.2 277 13.2
2011-08-24 07:51:19 51°14.732 2°54.634 274.4 11.3 272 13
2011-08-24 07:51:24 51°14.732 2°54.609 271 11.4 271 13.1
2011-08-24 07:51:29 51°14.732 2°54.583 269.3 11.4 268 13
2011-08-24 07:51:34 51°14.731 2°54.558 267.2 11.5 267 13
2011-08-24 07:51:39 51°14.73 2°54.533 265.4 11.6 265 12.5
2011-08-24 07:51:44 51°14.729 2°54.507 265 11.6 267 12.3
2011-08-24 07:51:48 51°14.728 2°54.487 265.3 11.6 266 12.2
2011-08-24 07:51:54 51°14.726 2°54.456 264.1 11.6 264 12.2
2011-08-24 07:51:59 51°14.724 2°54.431 263 11.6 264 12.1
2011-08-24 07:52:04 51°14.722 2°54.405 262.4 11.6 263 12.1
2011-08-24 07:52:08 51°14.72 2°54.385 261.6 11.6 262 12.2
2011-08-24 07:52:14 51°14.717 2°54.354 261.4 11.6 262 12.1
2011-08-24 07:52:19 51°14.715 2°54.329 261.3 11.7 262 12.1
2011-08-24 07:52:24 51°14.712 2°54.303 260.6 11.6 260 12.1
2011-08-24 07:52:28 51°14.71 2°54.283 259.9 11.7 261 12
2011-08-24 07:52:34 51°14.707 2°54.252 260 11.6 261 12
2011-08-24 07:52:39 51°14.704 2°54.227 259.8 11.7 260 12
2011-08-24 07:52:44 51°14.702 2°54.201 260.1 11.7 261 12
2011-08-24 07:52:48 51°14.7 2°54.181 260.2 11.7 261 12
2011-08-24 07:52:54 51°14.697 2°54.15 260.3 11.7 262 12.1
2011-08-24 07:52:59 51°14.694 2°54.124 260.4 11.7 261 12.1
2011-08-24 07:53:04 51°14.692 2°54.098 261.2 11.7 263 12.1
2011-08-24 07:53:08 51°14.691 2°54.078 262.2 11.7 264 12.1
2011-08-24 07:53:14 51°14.688 2°54.047 262.9 11.7 264 12.4
2011-08-24 07:53:19 51°14.687 2°54.021 263.2 11.7 266 12.3
2011-08-24 07:53:24 51°14.686 2°53.995 264.6 11.7 267 12.2
2011-08-24 07:53:28 51°14.686 2°53.974 265.7 11.7 267 11.9
2011-08-24 07:53:34 51°14.685 2°53.943 265.5 11.7 268 11.8
2011-08-24 07:53:39 51°14.684 2°53.917 265.5 11.7 267 11.8
2011-08-24 07:53:44 51°14.684 2°53.891 266.6 11.7 271 11.9
2011-08-24 07:53:49 51°14.683 2°53.864 268.8 11.7 271 11.7
2011-08-24 07:53:54 51°14.684 2°53.838 269.8 11.7 273 11.6
2011-08-24 07:53:59 51°14.684 2°53.812 270.8 11.8 274 11.7
2011-08-24 07:54:04 51°14.686 2°53.786 272.3 11.8 276 11.6
2011-08-24 07:54:08 51°14.687 2°53.765 274.6 11.8 276 11.5
2011-08-24 07:54:14 51°14.689 2°53.734 275.5 11.8 277 11.5
2011-08-24 07:54:19 51°14.692 2°53.708 276.4 11.9 278 11.4
2011-08-24 07:54:24 51°14.694 2°53.682 277.2 11.9 279 11.3
2011-08-24 07:54:29 51°14.697 2°53.656 277.6 12 279 11.4
2011-08-24 07:54:34 51°14.699 2°53.629 277.9 12 278 11.3
2011-08-24 07:54:39 51°14.701 2°53.603 276.4 12 276 11.4
2011-08-24 07:54:44 51°14.703 2°53.576 275.8 12 277 11.5
2011-08-24 07:54:49 51°14.704 2°53.55 275.3 12 275 11.4
2011-08-24 07:54:54 51°14.706 2°53.524 274.6 12 275 11.3
2011-08-24 07:54:59 51°14.707 2°53.497 273.5 12 274 11.3
2011-08-24 07:55:04 51°14.708 2°53.471 272.3 12 273 11.4
2011-08-24 07:55:09 51°14.709 2°53.444 271.4 12 272 11.4
2011-08-24 07:55:14 51°14.709 2°53.418 270.7 12 272 11.3
2011-08-24 07:55:19 51°14.709 2°53.391 270.6 12 272 11.2
2011-08-24 07:55:24 51°14.71 2°53.365 270.4 12 272 11.3
2011-08-24 07:55:29 51°14.711 2°53.339 270.6 12 273 11.2
2011-08-24 07:55:34 51°14.712 2°53.312 271.2 12 274 11.4
2011-08-24 07:55:39 51°14.714 2°53.286 272.3 12 276 11.4
2011-08-24 07:55:44 51°14.716 2°53.26 274 11.9 277 11.4
2011-08-24 07:55:49 51°14.718 2°53.234 275.5 11.9 278 11.5
2011-08-24 07:55:54 51°14.721 2°53.208 276.4 11.9 279 11.4
2011-08-24 07:55:59 51°14.724 2°53.182 277.1 11.9 280 11.3
2011-08-24 07:56:04 51°14.727 2°53.156 277.5 11.9 279 11.3
2011-08-24 07:56:09 51°14.729 2°53.13 277.5 11.9 279 11.4
2011-08-24 07:56:14 51°14.731 2°53.104 277 11.9 278 11.5
2011-08-24 07:56:19 51°14.733 2°53.078 276.6 11.9 277 11.6
2011-08-24 07:56:24 51°14.736 2°53.052 276.4 11.9 277 11.5
2011-08-24 07:56:28 51°14.737 2°53.031 276.2 11.9 277 11.6
2011-08-24 07:56:34 51°14.74 2°53 276 11.9 278 11.6
2011-08-24 07:56:39 51°14.742 2°52.974 276.3 11.9 277 11.6
2011-08-24 07:56:44 51°14.744 2°52.948 275.8 11.9 276 11.5
2011-08-24 07:56:48 51°14.745 2°52.927 274.8 11.9 275 11.6
2011-08-24 07:56:54 51°14.746 2°52.895 273.5 11.8 273 11.7
2011-08-24 07:56:59 51°14.746 2°52.869 272.1 11.8 272 11.7
2011-08-24 07:57:04 51°14.747 2°52.843 270.8 11.8 271 11.6
2011-08-24 07:57:08 51°14.747 2°52.822 270.1 11.9 271 11.7
2011-08-24 07:57:14 51°14.747 2°52.791 269.8 11.9 270 11.8
2011-08-24 07:57:19 51°14.747 2°52.764 269.6 11.9 271 11.8
2011-08-24 07:57:24 51°14.748 2°52.738 270 11.9 272 11.8
2011-08-24 07:57:29 51°14.748 2°52.712 270.4 11.9 272 11.7
2011-08-24 07:57:34 51°14.749 2°52.685 270.8 12 273 11.7
2011-08-24 07:57:39 51°14.751 2°52.659 272.2 11.9 275 11.8
2011-08-24 07:57:44 51°14.753 2°52.633 273.9 11.9 277 11.7
2011-08-24 07:57:48 51°14.754 2°52.612 275.4 11.9 278 11.8
2011-08-24 07:57:54 51°14.757 2°52.581 275.9 11.9 278 11.9
2011-08-24 07:57:59 51°14.76 2°52.555 276.3 11.9 278 11.8
2011-08-24 07:58:04 51°14.762 2°52.529 276.5 11.8 278 11.9
2011-08-24 07:58:08 51°14.764 2°52.508 276.7 11.8 278 11.9
2011-08-24 07:58:14 51°14.767 2°52.477 276.9 11.8 279 11.9
2011-08-24 07:58:19 51°14.769 2°52.451 276.8 11.8 278 11.9
2011-08-24 07:58:24 51°14.771 2°52.425 276.7 11.8 278 11.9
2011-08-24 07:58:28 51°14.773 2°52.405 275.7 11.8 276 11.9
2011-08-24 07:58:34 51°14.774 2°52.374 274.8 11.8 275 11.9
2011-08-24 07:58:39 51°14.775 2°52.348 273.1 11.7 273 11.9
2011-08-24 07:58:44 51°14.776 2°52.322 271.7 11.7 272 11.9
2011-08-24 07:58:48 51°14.776 2°52.301 270.8 11.8 271 12
2011-08-24 07:58:54 51°14.776 2°52.27 270.4 11.8 272 12.1
2011-08-24 07:58:59 51°14.776 2°52.244 270 11.8 270 12.1
2011-08-24 07:59:04 51°14.777 2°52.218 269.6 11.8 271 12.2
2011-08-24 07:59:08 51°14.777 2°52.197 269.9 11.8 271 12
2011-08-24 07:59:14 51°14.777 2°52.166 270.2 11.9 271 12.2
2011-08-24 07:59:19 51°14.778 2°52.139 270.6 11.9 272 12.2
2011-08-24 07:59:24 51°14.779 2°52.113 271.3 11.9 273 12.2
2011-08-24 07:59:28 51°14.78 2°52.092 272 11.9 274 12.3
2011-08-24 07:59:34 51°14.782 2°52.06 273.6 12 276 12.2
2011-08-24 07:59:39 51°14.784 2°52.034 275.2 12 277 12.3
2011-08-24 07:59:44 51°14.786 2°52.008 276.1 12 277 12.3
2011-08-24 07:59:49 51°14.788 2°51.981 276.2 12 278 12.2
2011-08-24 07:59:54 51°14.791 2°51.955 276.6 12 278 12.3
2011-08-24 07:59:59 51°14.793 2°51.929 276.7 11.9 278 12.4
2011-08-24 08:00:04 51°14.795 2°51.903 276.8 11.9 277 12.3
2011-08-24 08:00:09 51°14.797 2°51.877 276.1 11.9 276 12.5
2011-08-24 08:00:14 51°14.798 2°51.85 275.2 11.9 275 12.5
2011-08-24 08:00:19 51°14.799 2°51.824 273.9 11.9 273 12.6
2011-08-24 08:00:24 51°14.8 2°51.798 272.5 11.9 272 12.6
2011-08-24 08:00:29 51°14.8 2°51.772 271.3 11.9 271 12.6
2011-08-24 08:00:34 51°14.801 2°51.746 270.7 11.9 271 12.6
2011-08-24 08:00:39 51°14.801 2°51.719 270.3 11.9 271 12.5
2011-08-24 08:00:44 51°14.801 2°51.693 270 11.9 271 12.7
2011-08-24 08:00:48 51°14.801 2°51.672 269.9 11.9 271 12.8
2011-08-24 08:00:54 51°14.802 2°51.64 269.9 11.9 271 12.7
2011-08-24 08:00:59 51°14.802 2°51.614 270.1 11.9 272 12.7
2011-08-24 08:01:04 51°14.803 2°51.588 270.7 11.8 272 12.7
2011-08-24 08:01:08 51°14.803 2°51.567 270.8 11.8 272 12.8
2011-08-24 08:01:14 51°14.804 2°51.536 270.8 11.9 271 12.9
2011-08-24 08:01:19 51°14.804 2°51.509 270.4 11.8 271 12.9
2011-08-24 08:01:24 51°14.805 2°51.483 270.3 11.8 272 12.8
2011-08-24 08:01:29 51°14.805 2°51.457 270.6 11.8 272 12.8
2011-08-24 08:01:34 51°14.806 2°51.431 270.6 11.9 272 13
2011-08-24 08:01:39 51°14.806 2°51.405 270.9 11.8 272 13
2011-08-24 08:01:44 51°14.807 2°51.379 271 11.8 272 13.1
2011-08-24 08:01:49 51°14.807 2°51.353 270.8 11.8 272 13.3
2011-08-24 08:01:54 51°14.808 2°51.327 270.9 11.8 273 13.2
2011-08-24 08:01:59 51°14.809 2°51.301 271.5 11.8 274 13.2
2011-08-24 08:02:04 51°14.811 2°51.275 272.3 11.9 275 13.3
2011-08-24 08:02:09 51°14.812 2°51.249 273.1 11.8 275 13.2
2011-08-24 08:02:14 51°14.814 2°51.222 274.3 11.9 277 13.2
2011-08-24 08:02:19 51°14.817 2°51.197 275.8 11.9 278 13.3
2011-08-24 08:02:24 51°14.82 2°51.171 277 11.8 280 13.3
2011-08-24 08:02:29 51°14.822 2°51.145 277.7 11.8 279 13.2
2011-08-24 08:02:34 51°14.825 2°51.119 277.3 11.8 279 13.3
2011-08-24 08:02:39 51°14.827 2°51.094 277 11.8 279 13.4
2011-08-24 08:02:44 51°14.83 2°51.068 276.9 11.8 278 13.4
2011-08-24 08:02:49 51°14.832 2°51.042 276.9 11.8 279 13.5
2011-08-24 08:02:54 51°14.835 2°51.016 277.1 11.8 278 13.6
2011-08-24 08:02:59 51°14.836 2°50.991 276.7 11.8 277 13.7
2011-08-24 08:03:04 51°14.838 2°50.965 275.3 11.7 275 13.7
2011-08-24 08:03:09 51°14.838 2°50.939 272.8 11.7 272 13.6
2011-08-24 08:03:14 51°14.839 2°50.913 271.4 11.8 273 13.7
2011-08-24 08:03:19 51°14.839 2°50.887 271 11.7 272 13.7
2011-08-24 08:03:24 51°14.839 2°50.861 270.2 11.7 270 13.8
2011-08-24 08:03:29 51°14.839 2°50.835 269.2 11.7 269 13.8
2011-08-24 08:03:34 51°14.838 2°50.809 267.5 11.7 268 13.8
2011-08-24 08:03:39 51°14.838 2°50.783 266.3 11.7 267 13.8
2011-08-24 08:03:44 51°14.837 2°50.758 265.7 11.7 267 13.8
2011-08-24 08:03:48 51°14.836 2°50.737 265.2 11.6 266 13.8
2011-08-24 08:03:54 51°14.834 2°50.706 264.7 11.6 265 13.8
2011-08-24 08:03:59 51°14.834 2°50.68 264.8 11.7 268 13.8
2011-08-24 08:04:04 51°14.833 2°50.655 265.5 11.6 267 13.9
2011-08-24 08:04:08 51°14.833 2°50.634 266.8 11.7 271 14
2011-08-24 08:04:14 51°14.833 2°50.603 268.6 11.7 271 14
2011-08-24 08:04:19 51°14.834 2°50.577 270.3 11.7 274 14
2011-08-24 08:04:24 51°14.836 2°50.551 271.9 11.7 275 14
2011-08-24 08:04:28 51°14.837 2°50.531 273.1 11.7 275 14.1
2011-08-24 08:04:34 51°14.839 2°50.5 273.9 11.7 276 14.1
2011-08-24 08:04:39 51°14.841 2°50.474 274.4 11.7 276 14.1
2011-08-24 08:04:44 51°14.842 2°50.448 274.4 11.7 275 14
2011-08-24 08:04:48 51°14.843 2°50.428 273.4 11.7 274 14.1
2011-08-24 08:04:54 51°14.844 2°50.397 272.7 11.7 274 14.1
2011-08-24 08:04:59 51°14.845 2°50.371 272 11.7 273 14.2
2011-08-24 08:05:04 51°14.846 2°50.345 271.2 11.7 272 14.2
2011-08-24 08:05:08 51°14.846 2°50.325 270.5 11.6 271 14.3
2011-08-24 08:05:14 51°14.846 2°50.294 269.9 11.7 271 14.3
2011-08-24 08:05:19 51°14.846 2°50.268 269.3 11.7 271 14.2
2011-08-24 08:05:24 51°14.846 2°50.242 268.5 11.6 269 14.3
2011-08-24 08:05:28 51°14.846 2°50.222 268.3 11.7 271 14.3
2011-08-24 08:05:33 51°14.846 2°50.196 268.7 11.7 270 14.4
2011-08-24 08:05:39 51°14.847 2°50.165 269.2 11.7 271 14.4
2011-08-24 08:05:44 51°14.847 2°50.139 269.4 11.7 271 14.4
2011-08-24 08:05:48 51°14.847 2°50.118 270.1 11.7 272 14.4
2011-08-24 08:05:54 51°14.849 2°50.087 271.3 11.7 274 14.4
2011-08-24 08:05:59 51°14.85 2°50.061 272.4 11.7 275 14.3
2011-08-24 08:06:04 51°14.852 2°50.036 273.4 11.8 276 14.3
2011-08-24 08:06:08 51°14.853 2°50.015 273.9 11.8 276 14.4
2011-08-24 08:06:14 51°14.855 2°49.984 274.4 11.8 277 14.5
2011-08-24 08:06:19 51°14.857 2°49.958 275.1 11.7 276 14.3
2011-08-24 08:06:24 51°14.859 2°49.933 274.4 11.7 276 14.5
2011-08-24 08:06:29 51°14.86 2°49.907 274.2 11.7 276 14.6
2011-08-24 08:06:34 51°14.861 2°49.881 273.5 11.7 274 14.5
2011-08-24 08:06:39 51°14.862 2°49.855 272.6 11.7 274 14.5
2011-08-24 08:06:44 51°14.863 2°49.83 271.6 11.7 272 14.7
2011-08-24 08:06:49 51°14.863 2°49.804 270.8 11.7 272 14.7
2011-08-24 08:06:54 51°14.863 2°49.778 269.7 11.7 270 14.6
2011-08-24 08:06:59 51°14.863 2°49.752 269.1 11.7 271 14.6
2011-08-24 08:07:04 51°14.863 2°49.726 268.7 11.7 269 14.5
2011-08-24 08:07:09 51°14.863 2°49.701 268.1 11.7 270 14.6
2011-08-24 08:07:14 51°14.863 2°49.675 268.3 11.7 270 14.6
2011-08-24 08:07:19 51°14.863 2°49.649 268.5 11.7 271 14.6
2011-08-24 08:07:24 51°14.863 2°49.623 268.9 11.7 271 14.7
2011-08-24 08:07:28 51°14.863 2°49.602 269.2 11.7 270 14.7
2011-08-24 08:07:34 51°14.863 2°49.571 269.3 11.7 270 14.8
2011-08-24 08:07:39 51°14.863 2°49.545 269.2 11.7 270 14.7
2011-08-24 08:07:44 51°14.863 2°49.52 268.9 11.7 270 14.7
2011-08-24 08:07:48 51°14.863 2°49.499 268.7 11.7 270 14.7
2011-08-24 08:07:53 51°14.864 2°49.473 268.7 11.7 270 14.7
2011-08-24 08:07:59 51°14.864 2°49.442 269.1 11.7 271 14.8
2011-08-24 08:08:04 51°14.864 2°49.416 269.7 11.7 272 14.7
2011-08-24 08:08:09 51°14.865 2°49.39 270.3 11.7 272 14.6
2011-08-24 08:08:14 51°14.865 2°49.364 270.4 11.7 272 14.7
2011-08-24 08:08:19 51°14.866 2°49.338 270.8 11.7 272 14.8
2011-08-24 08:08:24 51°14.867 2°49.312 271 11.7 273 14.7
2011-08-24 08:08:29 51°14.868 2°49.286 271.3 11.7 273 14.6
2011-08-24 08:08:34 51°14.869 2°49.26 271.5 11.7 274 14.8
2011-08-24 08:08:39 51°14.87 2°49.235 271.7 11.7 273 14.8
2011-08-24 08:08:44 51°14.871 2°49.209 271.7 11.7 274 14.7
2011-08-24 08:08:48 51°14.871 2°49.188 271.7 11.7 273 14.6
2011-08-24 08:08:54 51°14.873 2°49.157 271.7 11.7 274 14.6
2011-08-24 08:08:59 51°14.874 2°49.131 271.8 11.7 273 14.6
2011-08-24 08:09:04 51°14.875 2°49.105 271.9 11.7 273 14.7
2011-08-24 08:09:08 51°14.875 2°49.084 271.6 11.7 273 14.8
2011-08-24 08:09:14 51°14.876 2°49.053 271.6 11.7 273 14.8
2011-08-24 08:09:19 51°14.877 2°49.028 271.5 11.7 274 14.7
2011-08-24 08:09:24 51°14.878 2°49.002 271.6 11.7 273 14.7
2011-08-24 08:09:28 51°14.879 2°48.981 271.5 11.7 273 14.8
2011-08-24 08:09:34 51°14.88 2°48.95 271.5 11.7 272 14.8
2011-08-24 08:09:39 51°14.88 2°48.924 271.2 11.7 272 14.8
2011-08-24 08:09:44 51°14.881 2°48.898 271 11.7 272 14.7
2011-08-24 08:09:48 51°14.881 2°48.878 270.7 11.7 272 14.7
2011-08-24 08:09:54 51°14.882 2°48.846 270.7 11.7 272 14.7
2011-08-24 08:09:59 51°14.883 2°48.821 270.5 11.7 272 14.7
2011-08-24 08:10:04 51°14.884 2°48.795 270.7 11.8 272 14.6
2011-08-24 08:10:08 51°14.884 2°48.774 270.5 11.7 271 14.5
2011-08-24 08:10:14 51°14.884 2°48.743 270.3 11.8 272 14.7
2011-08-24 08:10:19 51°14.884 2°48.717 269.6 11.7 269 14.6
2011-08-24 08:10:24 51°14.884 2°48.691 268.5 11.8 269 14.6
2011-08-24 08:10:29 51°14.883 2°48.665 267.8 11.7 268 14.5
2011-08-24 08:10:34 51°14.882 2°48.639 266.7 11.7 268 14.5
2011-08-24 08:10:39 51°14.881 2°48.613 266 11.7 267 14.5
2011-08-24 08:10:44 51°14.88 2°48.588 265.7 11.7 266 14.5
2011-08-24 08:10:48 51°14.879 2°48.567 265 11.7 266 14.4
2011-08-24 08:10:54 51°14.878 2°48.536 264.6 11.7 266 14.5
2011-08-24 08:10:59 51°14.876 2°48.51 264.4 11.7 265 14.4
2011-08-24 08:11:04 51°14.875 2°48.485 263.7 11.7 264 14.4
2011-08-24 08:11:08 51°14.873 2°48.464 263.2 11.7 264 14.4
2011-08-24 08:11:14 51°14.871 2°48.433 263.2 11.7 265 14.5
2011-08-24 08:11:19 51°14.871 2°48.407 263.9 11.7 267 14.3
2011-08-24 08:11:24 51°14.87 2°48.382 265.3 11.7 267 14.4
2011-08-24 08:11:29 51°14.869 2°48.356 266.9 11.7 268 14.5
2011-08-24 08:11:34 51°14.869 2°48.33 267.5 11.7 268 14.3
2011-08-24 08:11:39 51°14.868 2°48.304 267.6 11.7 269 14.4
2011-08-24 08:11:44 51°14.868 2°48.278 267.7 11.7 269 14.4
2011-08-24 08:11:49 51°14.868 2°48.252 267.5 11.7 268 14.4
2011-08-24 08:11:54 51°14.867 2°48.227 267.2 11.7 267 14.6
2011-08-24 08:11:59 51°14.865 2°48.201 266.1 11.7 266 14.7
2011-08-24 08:12:04 51°14.864 2°48.175 265 11.6 265 14.5
2011-08-24 08:12:08 51°14.862 2°48.155 263.5 11.6 263 14.7
2011-08-24 08:12:14 51°14.86 2°48.125 262.7 11.6 263 14.6
2011-08-24 08:12:19 51°14.858 2°48.099 262 11.6 262 14.6
2011-08-24 08:12:24 51°14.856 2°48.074 261.4 11.6 263 14.6
2011-08-24 08:12:28 51°14.854 2°48.054 261.1 11.6 262 14.7
2011-08-24 08:12:33 51°14.852 2°48.028 261.4 11.6 263 15
2011-08-24 08:12:39 51°14.85 2°47.998 262 11.5 262 15.1
2011-08-24 08:12:44 51°14.848 2°47.973 262 11.6 263 15.1
2011-08-24 08:12:49 51°14.846 2°47.947 261.9 11.6 263 15.1
2011-08-24 08:12:54 51°14.843 2°47.922 261.9 11.6 263 15
2011-08-24 08:12:59 51°14.841 2°47.897 261.8 11.6 263 15
2011-08-24 08:13:04 51°14.84 2°47.871 262.4 11.6 265 14.8
2011-08-24 08:13:09 51°14.838 2°47.846 263 11.6 264 14.8
2011-08-24 08:13:14 51°14.837 2°47.82 263.5 11.6 265 14.8
2011-08-24 08:13:19 51°14.836 2°47.794 263.6 11.6 266 14.7
2011-08-24 08:13:24 51°14.834 2°47.769 264.3 11.6 266 14.7
2011-08-24 08:13:28 51°14.833 2°47.748 264.4 11.6 265 14.9
2011-08-24 08:13:34 51°14.832 2°47.718 264.4 11.6 265 14.5
2011-08-24 08:13:39 51°14.831 2°47.692 264.5 11.6 266 14.8
2011-08-24 08:13:44 51°14.83 2°47.667 264.7 11.5 266 15
2011-08-24 08:13:48 51°14.829 2°47.646 264.5 11.6 265 15.1
2011-08-24 08:13:54 51°14.827 2°47.616 264.4 11.5 266 15
2011-08-24 08:13:59 51°14.826 2°47.591 264.4 11.5 265 15.1
2011-08-24 08:14:04 51°14.825 2°47.565 264.2 11.5 265 15.2
2011-08-24 08:14:08 51°14.824 2°47.545 264.2 11.5 265 15.1
2011-08-24 08:14:14 51°14.822 2°47.514 264.3 11.5 266 15
2011-08-24 08:14:19 51°14.821 2°47.489 264.8 11.5 267 15.1
2011-08-24 08:14:24 51°14.82 2°47.463 265.1 11.6 266 15.2
2011-08-24 08:14:29 51°14.82 2°47.438 265.3 11.5 267 14.9
2011-08-24 08:14:34 51°14.819 2°47.413 265.5 11.6 267 15.1
2011-08-24 08:14:39 51°14.818 2°47.387 265.5 11.6 267 15.1
2011-08-24 08:14:44 51°14.817 2°47.362 265.7 11.6 267 15.1
2011-08-24 08:14:49 51°14.816 2°47.336 265.7 11.6 267 15.1
2011-08-24 08:14:53 51°14.815 2°47.316 265.6 11.6 267 15.1
2011-08-24 08:14:59 51°14.814 2°47.285 265.4 11.6 267 15
2011-08-24 08:15:04 51°14.814 2°47.259 265.3 11.6 267 14.9
2011-08-24 08:15:08 51°14.813 2°47.239 265.9 11.6 269 15.1
2011-08-24 08:15:14 51°14.813 2°47.208 266.3 11.6 268 15
2011-08-24 08:15:19 51°14.813 2°47.182 266.7 11.6 269 14.8
2011-08-24 08:15:24 51°14.812 2°47.157 267.2 11.6 269 14.8
2011-08-24 08:15:28 51°14.812 2°47.136 267.4 11.6 269 14.7
2011-08-24 08:15:34 51°14.811 2°47.105 267.2 11.6 269 14.4
2011-08-24 08:15:39 51°14.811 2°47.08 266.9 11.6 267 14.5
2011-08-24 08:15:44 51°14.81 2°47.054 266.3 11.6 266 14.5
2011-08-24 08:15:49 51°14.808 2°47.029 265.3 11.6 265 14.3
2011-08-24 08:15:54 51°14.807 2°47.003 264 11.6 264 14.1
2011-08-24 08:15:59 51°14.804 2°46.978 262.6 11.6 262 14.1
2011-08-24 08:16:04 51°14.802 2°46.952 262 11.7 263 13.9
2011-08-24 08:16:09 51°14.8 2°46.927 261.3 11.7 261 13.9
2011-08-24 08:16:14 51°14.798 2°46.901 261.4 11.7 263 13.8
2011-08-24 08:16:19 51°14.795 2°46.875 261.5 11.7 261 13.8
2011-08-24 08:16:24 51°14.793 2°46.85 261.3 11.7 262 13.6
2011-08-24 08:16:28 51°14.791 2°46.829 261 11.8 261 13.4
2011-08-24 08:16:34 51°14.788 2°46.798 260.8 11.8 262 13.3
2011-08-24 08:16:39 51°14.786 2°46.773 261 11.8 261 13.3
2011-08-24 08:16:44 51°14.784 2°46.747 261.4 11.8 264 12.9
2011-08-24 08:16:49 51°14.782 2°46.72 262.7 11.9 264 12.9
2011-08-24 08:16:54 51°14.781 2°46.694 264.1 11.9 266 12.7
2011-08-24 08:16:59 51°14.78 2°46.668 265.7 11.9 267 12.6
2011-08-24 08:17:04 51°14.78 2°46.642 266.7 11.9 268 12.5
2011-08-24 08:17:09 51°14.779 2°46.615 267.7 11.9 269 12.3
2011-08-24 08:17:13 51°14.779 2°46.594 268.2 11.9 269 12.1
2011-08-24 08:17:19 51°14.779 2°46.563 268.4 11.9 269 11.9
2011-08-24 08:17:24 51°14.778 2°46.536 268.1 11.9 268 11.9
2011-08-24 08:17:29 51°14.778 2°46.51 267.2 11.9 267 11.8
2011-08-24 08:17:34 51°14.776 2°46.484 266.8 11.9 266 11.5
2011-08-24 08:17:39 51°14.775 2°46.458 265.2 11.9 264 11.5
2011-08-24 08:17:44 51°14.773 2°46.432 264 11.8 264 11.4
2011-08-24 08:17:49 51°14.771 2°46.406 262.9 11.9 263 11.3
2011-08-24 08:17:54 51°14.769 2°46.38 262.2 11.9 263 11.1
2011-08-24 08:17:59 51°14.766 2°46.354 261.5 11.8 261 11.2
2011-08-24 08:18:04 51°14.764 2°46.328 261.3 11.8 263 11.2
2011-08-24 08:18:09 51°14.762 2°46.302 261.2 11.9 262 11.3
2011-08-24 08:18:14 51°14.76 2°46.276 261.5 11.8 263 11.2
2011-08-24 08:18:19 51°14.757 2°46.25 261.4 11.8 261 10.9
2011-08-24 08:18:24 51°14.755 2°46.224 261.2 11.9 262 11.1
2011-08-24 08:18:29 51°14.753 2°46.198 260.9 11.8 262 11.1
2011-08-24 08:18:34 51°14.75 2°46.172 261 11.9 262 11.1
2011-08-24 08:18:39 51°14.748 2°46.146 260.9 11.9 263 11
2011-08-24 08:18:44 51°14.746 2°46.12 261.5 11.9 263 11
2011-08-24 08:18:48 51°14.745 2°46.099 262.3 11.9 263 10.9
2011-08-24 08:18:54 51°14.742 2°46.068 262.6 11.9 263 11
2011-08-24 08:18:59 51°14.74 2°46.042 262.9 11.9 264 11
2011-08-24 08:19:04 51°14.739 2°46.016 262.9 11.9 263 11.1
2011-08-24 08:19:08 51°14.737 2°45.995 262.9 11.9 263 11.1
2011-08-24 08:19:14 51°14.735 2°45.963 262.8 11.9 263 11.1
2011-08-24 08:19:19 51°14.733 2°45.937 262.6 11.9 264 11.2
2011-08-24 08:19:24 51°14.731 2°45.911 263.3 11.9 264 11.3
2011-08-24 08:19:28 51°14.73 2°45.89 263.8 11.9 265 11.3
2011-08-24 08:19:34 51°14.728 2°45.859 264.1 11.9 265 11.3
2011-08-24 08:19:39 51°14.727 2°45.832 264.9 11.9 266 11.5
2011-08-24 08:19:44 51°14.726 2°45.806 265 11.9 265 11.6
2011-08-24 08:19:48 51°14.725 2°45.785 264.9 11.9 267 11.6
2011-08-24 08:19:54 51°14.724 2°45.754 265.1 11.9 265 11.8
2011-08-24 08:19:59 51°14.722 2°45.728 264.7 11.8 266 11.9
2011-08-24 08:20:04 51°14.721 2°45.702 264.3 11.7 263 12
2011-08-24 08:20:09 51°14.718 2°45.677 262.3 11.8 261 12.2
2011-08-24 08:20:14 51°14.715 2°45.651 261 11.7 261 12.3
2011-08-24 08:20:19 51°14.713 2°45.626 260.2 11.7 260 12.4
2011-08-24 08:20:24 51°14.71 2°45.6 259.3 11.7 259 12.4
2011-08-24 08:20:28 51°14.707 2°45.58 258.5 11.6 258 12.6
2011-08-24 08:20:34 51°14.702 2°45.55 257.1 11.7 256 12.7
2011-08-24 08:20:39 51°14.698 2°45.525 256.1 11.6 256 12.8
2011-08-24 08:20:44 51°14.694 2°45.501 255.2 11.6 254 12.8
2011-08-24 08:20:48 51°14.691 2°45.481 254.1 11.6 254 13
2011-08-24 08:20:54 51°14.685 2°45.451 253.4 11.6 253 13
2011-08-24 08:20:59 51°14.68 2°45.427 252.7 11.6 252 13
2011-08-24 08:21:04 51°14.674 2°45.403 251.5 11.6 252 13
2011-08-24 08:21:08 51°14.67 2°45.383 251.1 11.6 251 13
2011-08-24 08:21:14 51°14.664 2°45.354 250.7 11.6 252 13
2011-08-24 08:21:19 51°14.658 2°45.33 250.5 11.6 250 13.2
2011-08-24 08:21:24 51°14.654 2°45.306 250.5 11.6 252 13.1
2011-08-24 08:21:28 51°14.649 2°45.287 250.2 11.6 250 13.3
2011-08-24 08:21:33 51°14.644 2°45.262 251 11.6 253 13.3
2011-08-24 08:21:39 51°14.638 2°45.233 251.3 11.6 251 13.3
2011-08-24 08:21:44 51°14.633 2°45.208 250.8 11.7 252 13.5
2011-08-24 08:21:49 51°14.628 2°45.184 251.2 11.6 252 13.4
2011-08-24 08:21:54 51°14.623 2°45.16 251.6 11.6 252 13.5
2011-08-24 08:21:59 51°14.618 2°45.135 251.7 11.6 253 13.6
2011-08-24 08:22:04 51°14.614 2°45.11 252.7 11.6 255 13.6
2011-08-24 08:22:09 51°14.61 2°45.085 253.8 11.7 255 13.8
2011-08-24 08:22:14 51°14.607 2°45.06 255.4 11.6 258 13.8
2011-08-24 08:22:19 51°14.602 2°45.036 255.8 11.6 255 14
2011-08-24 08:22:24 51°14.599 2°45.01 255.7 11.6 258 14
2011-08-24 08:22:28 51°14.596 2°44.99 256.2 11.6 256 14
2011-08-24 08:22:34 51°14.591 2°44.96 255.7 11.7 257 14.2
2011-08-24 08:22:39 51°14.587 2°44.935 255.4 11.6 256 14.2
2011-08-24 08:22:44 51°14.583 2°44.91 255.5 11.7 256 14.3
2011-08-24 08:22:48 51°14.58 2°44.889 255.2 11.6 256 14.4
2011-08-24 08:22:54 51°14.575 2°44.859 254.7 11.6 254 14.6
2011-08-24 08:22:59 51°14.571 2°44.834 254 11.6 255 14.6
2011-08-24 08:23:04 51°14.566 2°44.81 253.6 11.6 253 14.6
2011-08-24 08:23:08 51°14.562 2°44.791 252.7 11.6 254 14.7
2011-08-24 08:23:14 51°14.556 2°44.761 252.5 11.6 252 14.9
2011-08-24 08:23:19 51°14.552 2°44.737 251.6 11.6 252 14.9
2011-08-24 08:23:24 51°14.546 2°44.713 251.1 11.6 251 15.1
2011-08-24 08:23:28 51°14.542 2°44.694 250.5 11.6 251 15.2
2011-08-24 08:23:34 51°14.536 2°44.665 250.5 11.6 252 15.2
2011-08-24 08:23:39 51°14.531 2°44.64 250.7 11.6 252 15.3
2011-08-24 08:23:44 51°14.526 2°44.616 251.2 11.6 252 15.3
2011-08-24 08:23:48 51°14.521 2°44.597 251.1 11.7 252 15.4
2011-08-24 08:23:54 51°14.516 2°44.568 251.5 11.6 252 15.5
2011-08-24 08:23:59 51°14.511 2°44.543 251.6 11.6 252 15.5
2011-08-24 08:24:04 51°14.506 2°44.519 251.7 11.6 254 15.7
2011-08-24 08:24:08 51°14.502 2°44.499 252.3 11.6 252 15.8
2011-08-24 08:24:14 51°14.497 2°44.47 252.1 11.6 254 15.7
2011-08-24 08:24:19 51°14.492 2°44.445 252.5 11.6 253 15.9
2011-08-24 08:24:24 51°14.488 2°44.421 253.1 11.6 254 15.9
2011-08-24 08:24:29 51°14.483 2°44.396 253.3 11.6 254 15.8
2011-08-24 08:24:34 51°14.479 2°44.372 253.3 11.6 254 15.9
2011-08-24 08:24:39 51°14.473 2°44.348 251.8 11.6 250 16
2011-08-24 08:24:44 51°14.468 2°44.323 250.3 11.6 252 15.9
2011-08-24 08:24:48 51°14.464 2°44.304 250.2 11.6 250 16.1
2011-08-24 08:24:54 51°14.457 2°44.276 249.6 11.5 249 16.1
2011-08-24 08:24:59 51°14.451 2°44.252 248.7 11.6 247 16.1
2011-08-24 08:25:04 51°14.445 2°44.228 247.7 11.6 249 16.2
2011-08-24 08:25:08 51°14.44 2°44.209 247.6 11.5 247 16.1
2011-08-24 08:25:14 51°14.432 2°44.181 246.4 11.7 246 16.3
2011-08-24 08:25:19 51°14.426 2°44.157 246.4 11.6 247 16.3
2011-08-24 08:25:24 51°14.419 2°44.134 246 11.6 245 16.3
2011-08-24 08:25:29 51°14.412 2°44.111 245.4 11.6 246 16.4
2011-08-24 08:25:34 51°14.405 2°44.088 245.1 11.6 244 16.5
2011-08-24 08:25:39 51°14.398 2°44.064 244.5 11.6 246 16.5
2011-08-24 08:25:44 51°14.391 2°44.041 244.7 11.6 244 16.4
2011-08-24 08:25:48 51°14.386 2°44.023 244.5 11.7 246 16.5
2011-08-24 08:25:53 51°14.38 2°43.999 246 11.6 248 16.5
2011-08-24 08:25:59 51°14.373 2°43.97 247.4 11.6 248 16.6
2011-08-24 08:26:04 51°14.367 2°43.946 248.7 11.7 251 16.6
2011-08-24 08:26:08 51°14.363 2°43.926 249.6 11.7 250 16.7
2011-08-24 08:26:14 51°14.357 2°43.897 250.4 11.7 251 16.8
2011-08-24 08:26:19 51°14.352 2°43.873 250.5 11.7 252 16.7
2011-08-24 08:26:24 51°14.346 2°43.848 250.9 11.7 251 16.8
2011-08-24 08:26:28 51°14.342 2°43.829 250.9 11.7 252 16.8
2011-08-24 08:26:34 51°14.336 2°43.8 250.6 11.7 251 16.9
2011-08-24 08:26:39 51°14.331 2°43.775 250.6 11.7 251 17
2011-08-24 08:26:44 51°14.325 2°43.751 249.9 11.6 249 17
2011-08-24 08:26:48 51°14.32 2°43.732 248.8 11.7 248 16.9
2011-08-24 08:26:54 51°14.313 2°43.704 248 11.7 247 17.1
2011-08-24 08:26:59 51°14.306 2°43.68 247 11.6 246 17.2
2011-08-24 08:27:04 51°14.3 2°43.656 246.1 11.7 246 16.9
2011-08-24 08:27:09 51°14.293 2°43.633 245.9 11.7 247 17
2011-08-24 08:27:14 51°14.287 2°43.609 246.2 11.6 247 17.1
2011-08-24 08:27:19 51°14.28 2°43.586 246.2 11.7 245 17.1
2011-08-24 08:27:24 51°14.273 2°43.562 245.9 11.7 246 17.2
2011-08-24 08:27:28 51°14.268 2°43.543 245.4 11.6 244 17.1
2011-08-24 08:27:34 51°14.26 2°43.515 244.7 11.7 246 17.2
2011-08-24 08:27:39 51°14.253 2°43.492 244.9 11.7 245 17.3
2011-08-24 08:27:44 51°14.246 2°43.468 245.2 11.6 246 17.3
2011-08-24 08:27:48 51°14.241 2°43.45 245.1 11.7 245 17.3
2011-08-24 08:27:54 51°14.232 2°43.422 244.7 11.7 246 17.2
2011-08-24 08:27:59 51°14.225 2°43.398 244.7 11.7 245 17.4
2011-08-24 08:28:04 51°14.219 2°43.375 245.1 11.7 246 17.4
2011-08-24 08:28:08 51°14.214 2°43.356 246.1 11.7 248 17.4
2011-08-24 08:28:14 51°14.207 2°43.327 247.6 11.7 249 17.5
2011-08-24 08:28:19 51°14.202 2°43.302 249.6 11.7 252 17.6
2011-08-24 08:28:24 51°14.196 2°43.278 249.9 11.7 249 17.5
2011-08-24 08:28:29 51°14.191 2°43.253 250.3 11.8 253 17.5
2011-08-24 08:28:34 51°14.186 2°43.229 250.7 11.7 250 17.7
2011-08-24 08:28:39 51°14.18 2°43.204 250.5 11.7 251 17.7
2011-08-24 08:28:44 51°14.174 2°43.18 249.6 11.7 249 17.7
2011-08-24 08:28:48 51°14.17 2°43.161 249.1 11.7 250 17.6
2011-08-24 08:28:54 51°14.163 2°43.132 248.4 11.7 248 17.8
2011-08-24 08:28:59 51°14.157 2°43.108 248.3 11.7 248 17.7
2011-08-24 08:29:04 51°14.15 2°43.084 247.5 11.7 247 17.6
2011-08-24 08:29:08 51°14.145 2°43.065 246.9 11.7 247 17.6
2011-08-24 08:29:14 51°14.137 2°43.037 246.2 11.7 246 17.5
2011-08-24 08:29:19 51°14.13 2°43.014 245.5 11.7 245 17.6
2011-08-24 08:29:24 51°14.124 2°42.99 245 11.7 245 17.5
2011-08-24 08:29:29 51°14.116 2°42.967 244.6 11.7 244 17.6
2011-08-24 08:29:34 51°14.11 2°42.944 244.4 11.7 245 17.5
2011-08-24 08:29:39 51°14.103 2°42.921 244.7 11.6 245 17.4
2011-08-24 08:29:44 51°14.096 2°42.897 245.1 11.6 246 17.6
2011-08-24 08:29:49 51°14.089 2°42.874 245.1 11.6 245 17.5
2011-08-24 08:29:54 51°14.083 2°42.85 245.2 11.7 246 17.4
2011-08-24 08:29:59 51°14.076 2°42.827 245.5 11.7 245 17.6
2011-08-24 08:30:04 51°14.07 2°42.803 245.3 11.7 246 17.5
2011-08-24 08:30:08 51°14.064 2°42.784 245.5 11.7 246 17.4
2011-08-24 08:30:14 51°14.056 2°42.756 245.5 11.7 246 17.5
2011-08-24 08:30:19 51°14.049 2°42.732 245.5 11.7 246 17.5
2011-08-24 08:30:24 51°14.042 2°42.709 245.3 11.8 245 17.4
2011-08-24 08:30:28 51°14.037 2°42.69 245.1 11.7 247 17.5
2011-08-24 08:30:34 51°14.03 2°42.662 246.1 11.7 247 17.6
2011-08-24 08:30:39 51°14.024 2°42.637 247.1 11.8 250 17.4
2011-08-24 08:30:44 51°14.018 2°42.613 249 11.8 251 17.4
2011-08-24 08:30:49 51°14.013 2°42.588 250.1 11.8 250 17.6
2011-08-24 08:30:54 51°14.008 2°42.563 250 11.8 251 17.5
2011-08-24 08:30:59 51°14.003 2°42.539 250.7 11.8 251 17.6
2011-08-24 08:31:04 51°13.997 2°42.514 251.1 11.8 252 17.6
2011-08-24 08:31:09 51°13.992 2°42.489 251 11.8 251 17.5
2011-08-24 08:31:14 51°13.986 2°42.465 250.4 11.9 249 17.6
2011-08-24 08:31:19 51°13.981 2°42.44 249 11.8 250 17.6
2011-08-24 08:31:24 51°13.975 2°42.416 248.7 11.9 249 17.6
2011-08-24 08:31:28 51°13.97 2°42.396 248.5 11.9 250 17.6
2011-08-24 08:31:34 51°13.963 2°42.367 249.3 11.9 251 17.7
2011-08-24 08:31:39 51°13.958 2°42.342 250.2 11.9 250 17.8
2011-08-24 08:31:44 51°13.952 2°42.317 250.1 11.9 250 17.8
2011-08-24 08:31:48 51°13.948 2°42.297 250.7 11.9 252 17.7
2011-08-24 08:31:54 51°13.942 2°42.267 251 11.9 251 17.6
2011-08-24 08:31:59 51°13.937 2°42.242 250.5 11.9 251 17.7
2011-08-24 08:32:04 51°13.931 2°42.217 250.4 11.9 251 17.7
2011-08-24 08:32:09 51°13.925 2°42.193 250.3 11.9 249 17.8
2011-08-24 08:32:14 51°13.92 2°42.168 249.7 11.9 249 17.7
2011-08-24 08:32:19 51°13.913 2°42.144 248.5 11.9 248 17.7
2011-08-24 08:32:24 51°13.907 2°42.119 247.4 11.9 247 17.8
2011-08-24 08:32:28 51°13.901 2°42.1 246.7 11.9 246 17.7
2011-08-24 08:32:34 51°13.893 2°42.072 245.6 11.9 245 18
2011-08-24 08:32:39 51°13.886 2°42.048 244.8 11.9 245 17.8
2011-08-24 08:32:44 51°13.879 2°42.025 244.7 11.9 244 18
2011-08-24 08:32:48 51°13.873 2°42.006 244.4 11.9 244 17.9
2011-08-24 08:32:54 51°13.864 2°41.978 243.6 11.9 244 17.8
2011-08-24 08:32:59 51°13.858 2°41.954 244 11.9 246 17.9
2011-08-24 08:33:04 51°13.85 2°41.93 244.7 11.9 244 17.8
2011-08-24 08:33:09 51°13.844 2°41.906 244.4 11.9 246 17.8
2011-08-24 08:33:14 51°13.837 2°41.882 245.1 11.9 245 17.8
2011-08-24 08:33:19 51°13.83 2°41.858 245.1 11.9 246 18
2011-08-24 08:33:24 51°13.823 2°41.834 245.2 11.9 245 17.7
2011-08-24 08:33:29 51°13.816 2°41.81 245 11.9 246 17.8
2011-08-24 08:33:34 51°13.809 2°41.786 244.8 11.9 245 18
2011-08-24 08:33:39 51°13.802 2°41.762 244.8 11.9 245 17.9
2011-08-24 08:33:44 51°13.795 2°41.738 244.5 12 245 17.8
2011-08-24 08:33:49 51°13.788 2°41.714 244.7 11.9 246 18
2011-08-24 08:33:54 51°13.782 2°41.69 245.2 11.9 246 18
2011-08-24 08:33:59 51°13.775 2°41.666 245.8 11.9 247 18.1
2011-08-24 08:34:04 51°13.769 2°41.641 246.8 11.9 248 18
2011-08-24 08:34:09 51°13.763 2°41.616 247.3 11.9 249 17.8
2011-08-24 08:34:14 51°13.757 2°41.592 248 12 249 18
2011-08-24 08:34:19 51°13.752 2°41.567 248.9 11.9 252 17.9
2011-08-24 08:34:24 51°13.747 2°41.542 250.5 12 251 18
2011-08-24 08:34:28 51°13.743 2°41.522 250.8 11.9 252 17.9
2011-08-24 08:34:34 51°13.736 2°41.492 250.5 12 250 18
2011-08-24 08:34:39 51°13.731 2°41.466 250.5 11.9 251 18
2011-08-24 08:34:44 51°13.725 2°41.442 250.1 11.9 249 18.1
2011-08-24 08:34:49 51°13.719 2°41.418 248.7 11.9 248 18.2
2011-08-24 08:34:54 51°13.713 2°41.393 248.1 11.8 248 18.1
2011-08-24 08:34:59 51°13.706 2°41.369 247.1 11.9 246 18.2
2011-08-24 08:35:04 51°13.7 2°41.345 246.4 11.9 248 18.1
2011-08-24 08:35:08 51°13.695 2°41.326 246.7 11.9 246 18.1
2011-08-24 08:35:14 51°13.687 2°41.297 246.1 11.9 247 18.1
2011-08-24 08:35:19 51°13.68 2°41.273 245.7 11.9 245 18.1
2011-08-24 08:35:24 51°13.673 2°41.249 245.5 11.9 245 18.3
2011-08-24 08:35:28 51°13.667 2°41.23 244.9 11.9 244 18.1
2011-08-24 08:35:34 51°13.659 2°41.201 244.3 12 245 18.1
2011-08-24 08:35:39 51°13.653 2°41.177 244.9 11.9 247 18
2011-08-24 08:35:44 51°13.645 2°41.154 245.4 11.9 245 18.1
2011-08-24 08:35:49 51°13.639 2°41.129 245.2 12 247 17.9
2011-08-24 08:35:54 51°13.632 2°41.105 245.6 11.9 246 18.1
2011-08-24 08:35:59 51°13.625 2°41.082 245.9 11.9 246 18
2011-08-24 08:36:04 51°13.619 2°41.057 245.4 11.9 246 17.9
2011-08-24 08:36:09 51°13.612 2°41.034 245.4 11.9 246 18
2011-08-24 08:36:14 51°13.605 2°41.009 245.4 11.9 247 18
2011-08-24 08:36:19 51°13.599 2°40.985 245.5 12 247 18
2011-08-24 08:36:24 51°13.593 2°40.961 246.6 11.9 249 18
2011-08-24 08:36:29 51°13.586 2°40.936 247.4 11.9 248 17.9
2011-08-24 08:36:34 51°13.581 2°40.911 247.8 11.9 250 17.7
2011-08-24 08:36:39 51°13.575 2°40.887 248.7 11.9 249 17.9
2011-08-24 08:36:44 51°13.57 2°40.862 249.4 11.9 252 17.8
2011-08-24 08:36:48 51°13.565 2°40.842 249.8 11.9 250 17.7
2011-08-24 08:36:54 51°13.559 2°40.812 250 11.9 252 17.6
2011-08-24 08:36:59 51°13.554 2°40.787 250.5 11.9 252 17.8
2011-08-24 08:37:04 51°13.549 2°40.762 250.9 11.9 251 17.7
2011-08-24 08:37:08 51°13.544 2°40.742 249.9 11.9 250 17.8
2011-08-24 08:37:14 51°13.537 2°40.713 249.2 11.9 249 17.9
2011-08-24 08:37:19 51°13.531 2°40.688 248.7 11.9 249 17.7
2011-08-24 08:37:24 51°13.525 2°40.664 247.9 11.9 248 17.9
2011-08-24 08:37:28 51°13.52 2°40.644 247.6 11.9 248 17.8
2011-08-24 08:37:34 51°13.512 2°40.615 247.3 11.9 248 17.7
2011-08-24 08:37:39 51°13.506 2°40.591 247 11.9 248 17.7
2011-08-24 08:37:44 51°13.5 2°40.567 246.9 11.8 247 17.1
2011-08-24 08:37:48 51°13.494 2°40.548 246.5 11.9 246 17.2
2011-08-24 08:37:54 51°13.487 2°40.519 245.7 11.9 246 17.3
2011-08-24 08:37:59 51°13.48 2°40.495 245.6 11.8 245 17.4
2011-08-24 08:38:04 51°13.473 2°40.471 245.1 11.9 246 17.2
2011-08-24 08:38:08 51°13.467 2°40.452 245 11.8 246 17
2011-08-24 08:38:14 51°13.459 2°40.424 244.7 11.9 245 17.3
2011-08-24 08:38:19 51°13.452 2°40.4 244.7 11.9 246 17.2
2011-08-24 08:38:24 51°13.445 2°40.376 245.1 11.9 246 17.2
2011-08-24 08:38:28 51°13.44 2°40.356 245.3 11.9 247 17.3
2011-08-24 08:38:34 51°13.432 2°40.327 245.8 12 247 17.5
2011-08-24 08:38:39 51°13.426 2°40.303 246.2 11.9 247 17.3
2011-08-24 08:38:44 51°13.42 2°40.279 246.8 11.9 248 16.9
2011-08-24 08:38:49 51°13.414 2°40.254 247.2 12 248 17.1
2011-08-24 08:38:54 51°13.408 2°40.229 247.9 11.9 249 17.2
2011-08-24 08:38:59 51°13.402 2°40.205 248.4 11.9 249 17.3
2011-08-24 08:39:04 51°13.397 2°40.18 249 11.9 251 17.4
2011-08-24 08:39:08 51°13.392 2°40.16 249.8 12 251 17.4
2011-08-24 08:39:14 51°13.386 2°40.13 250.7 11.9 251 17.5
2011-08-24 08:39:19 51°13.381 2°40.105 250.7 12 251 17.3
2011-08-24 08:39:24 51°13.376 2°40.08 250.7 12 252 17.2
2011-08-24 08:39:28 51°13.371 2°40.06 251 11.9 251 17.2
2011-08-24 08:39:34 51°13.364 2°40.03 249.8 12 250 17.1
2011-08-24 08:39:39 51°13.359 2°40.006 249.6 11.9 250 16.8
2011-08-24 08:39:44 51°13.353 2°39.981 248.7 11.9 249 16.4
2011-08-24 08:39:49 51°13.347 2°39.957 248.1 11.9 249 14.6
2011-08-24 08:39:54 51°13.341 2°39.932 247.6 11.9 248 16
2011-08-24 08:39:59 51°13.334 2°39.909 246.9 11.8 247 15.7
2011-08-24 08:40:04 51°13.328 2°39.884 246.1 11.9 247 16.5
2011-08-24 08:40:08 51°13.323 2°39.865 246.1 11.9 247 17
2011-08-24 08:40:14 51°13.314 2°39.836 245.8 11.9 246 17.1
2011-08-24 08:40:19 51°13.308 2°39.812 245.3 11.9 247 17.1
2011-08-24 08:40:24 51°13.302 2°39.788 245.9 11.9 248 17.3
2011-08-24 08:40:29 51°13.296 2°39.763 246.2 11.9 248 17.2
2011-08-24 08:40:34 51°13.29 2°39.739 246.6 11.9 249 16.8
2011-08-24 08:40:39 51°13.283 2°39.715 247 11.9 248 15.7
2011-08-24 08:40:44 51°13.277 2°39.69 247.1 11.8 248 16.8
2011-08-24 08:40:48 51°13.272 2°39.671 247.1 11.8 248 17.1
2011-08-24 08:40:54 51°13.264 2°39.642 246.9 11.8 247 17.3
2011-08-24 08:40:59 51°13.258 2°39.618 246.2 11.8 247 17.3
2011-08-24 08:41:04 51°13.252 2°39.594 246.4 11.8 248 17
2011-08-24 08:41:08 51°13.247 2°39.574 246.9 11.8 248 16.7
2011-08-24 08:41:14 51°13.24 2°39.545 246.9 11.8 248 16.2
2011-08-24 08:41:19 51°13.234 2°39.521 247 11.8 248 14.9
2011-08-24 08:41:24 51°13.228 2°39.497 247.1 11.8 248 14.8
2011-08-24 08:41:28 51°13.222 2°39.478 247.1 11.8 247 15.7
2011-08-24 08:41:34 51°13.215 2°39.448 246.8 11.9 248 16.4
2011-08-24 08:41:39 51°13.209 2°39.424 246.6 11.9 247 16.6
2011-08-24 08:41:44 51°13.202 2°39.4 246.3 11.9 247 16.7
2011-08-24 08:41:48 51°13.197 2°39.381 246 11.9 248 16.6
2011-08-24 08:41:54 51°13.189 2°39.352 246.1 11.9 246 16.6
2011-08-24 08:41:59 51°13.183 2°39.328 246 11.8 247 16.4
2011-08-24 08:42:04 51°13.176 2°39.304 246.1 11.8 247 15.8
2011-08-24 08:42:08 51°13.171 2°39.284 246 11.9 248 14.4
2011-08-24 08:42:14 51°13.164 2°39.256 246.1 11.8 247 15.1
2011-08-24 08:42:19 51°13.157 2°39.232 246.4 11.7 247 15.7
2011-08-24 08:42:24 51°13.151 2°39.208 246.1 11.9 246 16.2
2011-08-24 08:42:29 51°13.144 2°39.184 245.7 11.9 247 16.3
2011-08-24 08:42:34 51°13.138 2°39.16 246 11.8 247 16.2
2011-08-24 08:42:39 51°13.131 2°39.135 245.7 12 247 16.2
2011-08-24 08:42:44 51°13.125 2°39.111 246.1 11.8 247 16
2011-08-24 08:42:48 51°13.119 2°39.092 245.9 11.9 246 16.1
2011-08-24 08:42:54 51°13.112 2°39.063 245.8 11.8 247 15.9
2011-08-24 08:42:59 51°13.105 2°39.039 245.9 11.9 247 15.6
2011-08-24 08:43:04 51°13.099 2°39.015 246.1 11.9 248 15.3
2011-08-24 08:43:08 51°13.094 2°38.996 246.5 11.9 248 15.4
2011-08-24 08:43:14 51°13.087 2°38.966 247.4 11.9 249 15.3
2011-08-24 08:43:19 51°13.081 2°38.941 248 11.9 249 15
2011-08-24 08:43:24 51°13.076 2°38.917 248.6 11.9 251 14.9
2011-08-24 08:43:28 51°13.071 2°38.897 249.2 11.8 250 14.7
2011-08-24 08:43:34 51°13.065 2°38.867 249.5 11.9 252 14.6
2011-08-24 08:43:39 51°13.059 2°38.843 250.2 11.8 250 14.4
2011-08-24 08:43:44 51°13.054 2°38.818 249.7 11.8 251 14
2011-08-24 08:43:48 51°13.05 2°38.798 249.8 11.8 252 13.5
2011-08-24 08:43:54 51°13.043 2°38.769 250 11.9 252 13.6
2011-08-24 08:43:59 51°13.038 2°38.744 250.5 11.8 251 14.1
2011-08-24 08:44:04 51°13.033 2°38.72 249.9 11.7 250 14.6
2011-08-24 08:44:08 51°13.028 2°38.7 248.6 11.9 249 15
2011-08-24 08:44:14 51°13.021 2°38.67 248.4 11.9 250 15.2
2011-08-24 08:44:19 51°13.015 2°38.646 248.3 11.8 248 15.4
2011-08-24 08:44:24 51°13.009 2°38.622 247.6 11.9 248 15.5
2011-08-24 08:44:28 51°13.004 2°38.602 247.2 11.9 248 15.6
2011-08-24 08:44:34 51°12.996 2°38.573 246.7 11.9 247 15.6
2011-08-24 08:44:39 51°12.99 2°38.549 246.3 11.9 247 15.4
2011-08-24 08:44:44 51°12.983 2°38.525 245.9 11.9 246 15.5
2011-08-24 08:44:49 51°12.976 2°38.501 245.3 11.9 246 15.5
2011-08-24 08:44:54 51°12.969 2°38.477 245.2 11.9 245 15.6
2011-08-24 08:44:59 51°12.963 2°38.453 244.7 11.9 246 15.5
2011-08-24 08:45:04 51°12.956 2°38.429 245.1 11.9 247 15.5
2011-08-24 08:45:08 51°12.951 2°38.41 245.3 11.9 246 15.5
2011-08-24 08:45:14 51°12.943 2°38.381 245.5 11.9 247 15.4
2011-08-24 08:45:19 51°12.936 2°38.357 245.5 11.9 247 15.5
2011-08-24 08:45:24 51°12.931 2°38.332 247.3 11.9 251 15.5
2011-08-24 08:45:29 51°12.925 2°38.308 249 11.7 249 15.3
2011-08-24 08:45:34 51°12.92 2°38.283 249.2 11.7 251 15.4
2011-08-24 08:45:39 51°12.915 2°38.259 249.8 11.6 251 15.5
2011-08-24 08:45:44 51°12.91 2°38.235 250 11.5 251 15.4
2011-08-24 08:45:49 51°12.905 2°38.211 250.6 11.5 253 15.4
2011-08-24 08:45:54 51°12.901 2°38.187 251.9 11.5 254 15.3
2011-08-24 08:45:59 51°12.897 2°38.162 253.2 11.4 255 15.4
2011-08-24 08:46:04 51°12.892 2°38.138 253.8 11.4 254 15.2
2011-08-24 08:46:08 51°12.889 2°38.119 254.1 11.3 256 15.2
2011-08-24 08:46:14 51°12.885 2°38.091 254.7 10.6 255 15.1
2011-08-24 08:46:19 51°12.881 2°38.07 254.7 9.9 256 15.1
2011-08-24 08:46:24 51°12.878 2°38.051 254.7 9.2 255 15.2
2011-08-24 08:46:28 51°12.875 2°38.036 254.1 8.7 254 15.1
2011-08-24 08:46:34 51°12.872 2°38.014 253.5 8.3 255 15.1
2011-08-24 08:46:39 51°12.869 2°37.998 253.1 7.8 254 15
2011-08-24 08:46:44 51°12.866 2°37.982 253.4 7.4 256 15
2011-08-24 08:46:49 51°12.864 2°37.967 254.2 7 256 14.9
2011-08-24 08:46:54 51°12.862 2°37.952 255.1 6.7 259 14.9
2011-08-24 08:46:59 51°12.861 2°37.939 256.8 6.3 261 15
2011-08-24 08:47:04 51°12.86 2°37.926 259.8 5.9 264 15
2011-08-24 08:47:08 51°12.859 2°37.916 262.3 5.6 266 14.8
2011-08-24 08:47:14 51°12.859 2°37.902 264.1 5.3 267 14.7
2011-08-24 08:47:19 51°12.859 2°37.89 265.3 5.1 270 14.9
2011-08-24 08:47:24 51°12.859 2°37.88 267 4.9 271 14.7
2011-08-24 08:47:29 51°12.86 2°37.869 268.6 4.7 274 14.8
2011-08-24 08:47:34 51°12.86 2°37.86 270 4.5 275 14.9
2011-08-24 08:47:39 51°12.861 2°37.85 271.5 4.3 280 14.9
2011-08-24 08:47:44 51°12.862 2°37.841 274.7 4.1 282 14.8
2011-08-24 08:47:49 51°12.864 2°37.833 277.7 4 286 14.8
2011-08-24 08:47:54 51°12.866 2°37.825 280.9 3.8 290 14.6
2011-08-24 08:47:59 51°12.868 2°37.818 283.2 3.7 294 14.7
2011-08-24 08:48:04 51°12.87 2°37.811 286.8 3.6 297 14.7
2011-08-24 08:48:08 51°12.872 2°37.805 289.3 3.6 300 14.6
2011-08-24 08:48:14 51°12.875 2°37.797 291.8 3.5 302 14.6
2011-08-24 08:48:19 51°12.878 2°37.791 293.6 3.4 305 14.6
2011-08-24 08:48:24 51°12.881 2°37.785 295.4 3.4 306 14.5
2011-08-24 08:48:28 51°12.883 2°37.78 296.3 3.4 307 14.6
2011-08-24 08:48:34 51°12.887 2°37.773 297.4 3.4 309 14.5
2011-08-24 08:48:39 51°12.889 2°37.767 297.9 3.4 310 14.5
2011-08-24 08:48:44 51°12.893 2°37.762 298.2 3.4 309 14.6
2011-08-24 08:48:49 51°12.896 2°37.756 298.2 3.5 309 14.6
2011-08-24 08:48:54 51°12.899 2°37.75 297.7 3.5 309 14.5
2011-08-24 08:48:59 51°12.901 2°37.743 297 3.5 308 14.5
2011-08-24 08:49:04 51°12.904 2°37.737 296.2 3.5 307 14.5
2011-08-24 08:49:08 51°12.907 2°37.732 295.8 3.6 307 14.6
2011-08-24 08:49:14 51°12.91 2°37.725 295.5 3.6 307 14.2
2011-08-24 08:49:19 51°12.913 2°37.719 295.3 3.5 306 14.3
2011-08-24 08:49:24 51°12.916 2°37.712 295.1 3.5 306 14.4
2011-08-24 08:49:29 51°12.919 2°37.706 294.9 3.6 306 14.4
2011-08-24 08:49:34 51°12.922 2°37.7 294.9 3.6 306 14.3
2011-08-24 08:49:39 51°12.925 2°37.693 294.9 3.6 306 14.3
2011-08-24 08:49:44 51°12.928 2°37.687 295 3.6 306 14.4
2011-08-24 08:49:48 51°12.93 2°37.682 295.4 3.6 307 14.4
2011-08-24 08:49:54 51°12.934 2°37.674 295.9 3.6 307 14.4
2011-08-24 08:49:59 51°12.937 2°37.668 296.5 3.6 307 14.4
2011-08-24 08:50:04 51°12.94 2°37.661 297.5 3.7 309 14.3
2011-08-24 08:50:09 51°12.943 2°37.655 298.4 3.6 310 14.2
2011-08-24 08:50:14 51°12.947 2°37.649 299.4 3.5 311 14.2
2011-08-24 08:50:19 51°12.95 2°37.644 300.5 3.3 312 14.1
2011-08-24 08:50:24 51°12.953 2°37.639 301.4 3.2 314 14.3
2011-08-24 08:50:29 51°12.956 2°37.635 302.3 2.8 318 14.3
2011-08-24 08:50:34 51°12.958 2°37.632 303 2.4 322 14.3
2011-08-24 08:50:39 51°12.961 2°37.629 304.9 2 329 14.2
2011-08-24 08:50:44 51°12.962 2°37.628 307.8 1.4 338 14.3
2011-08-24 08:50:49 51°12.963 2°37.628 311.5 0.8 7 14.1
2011-08-24 08:50:54 51°12.964 2°37.629 315.2 0.6 50 14.1
2011-08-24 08:50:59 51°12.964 2°37.631 317.1 0.8 52 14.1
2011-08-24 08:51:04 51°12.965 2°37.632 318.5 0.8 49 14.3
2011-08-24 08:51:08 51°12.966 2°37.633 318.7 0.8 52 14.2
2011-08-24 08:51:14 51°12.966 2°37.635 319.2 0.8 54 14.3
2011-08-24 08:51:19 51°12.967 2°37.637 320 0.9 57 14.2
2011-08-24 08:51:24 51°12.968 2°37.639 321.9 0.9 56 14
2011-08-24 08:51:28 51°12.968 2°37.64 323.4 0.9 55 14.2
2011-08-24 08:51:34 51°12.969 2°37.642 325.4 0.9 53 -999
2011-08-24 08:51:40 51°12.97 2°37.644 327.3 0.9 56 -999
2011-08-24 08:51:46 51°12.971 2°37.646 329.6 0.9 55 -999
2011-08-24 08:51:52 51°12.972 2°37.648 331.1 0.9 54 -999
2011-08-24 08:51:57 51°12.973 2°37.649 332.7 0.9 51 -999
2011-08-24 08:52:02 51°12.973 2°37.651 334.7 1 50 -999
2011-08-24 08:52:07 51°12.974 2°37.653 336.1 1 50 -999
2011-08-24 08:52:12 51°12.975 2°37.654 337.7 1 51 -999
2011-08-24 08:52:17 51°12.976 2°37.656 339.1 1 50 -999
2011-08-24 08:52:22 51°12.977 2°37.658 340.3 1 52 -999
2011-08-24 08:52:27 51°12.978 2°37.66 341.4 1 55 -999
2011-08-24 08:52:32 51°12.978 2°37.662 342.7 0.9 60 4.8
2011-08-24 08:52:37 51°12.979 2°37.664 344 0.9 64 -999
2011-08-24 08:52:42 51°12.979 2°37.665 344.9 1 65 -999
2011-08-24 08:52:47 51°12.98 2°37.667 346.1 1 61 -999
2011-08-24 08:52:52 51°12.981 2°37.669 347.4 1 52 -999
2011-08-24 08:52:57 51°12.982 2°37.671 348.2 1.1 47 -999
2011-08-24 08:53:02 51°12.983 2°37.673 348.8 1.1 45 14.2
2011-08-24 08:53:07 51°12.984 2°37.675 349.2 1.1 46 14.2
2011-08-24 08:53:12 51°12.985 2°37.677 349.7 1.1 45 14.2
2011-08-24 08:53:16 51°12.986 2°37.678 350 1.1 48 14.3
2011-08-24 08:53:21 51°12.987 2°37.68 350.6 1.1 44 14.2
2011-08-24 08:53:26 51°12.988 2°37.682 350.9 1.1 48 14.2
2011-08-24 08:53:31 51°12.989 2°37.683 351.3 1.1 44 14.3
2011-08-24 08:53:36 51°12.99 2°37.685 351.4 1.1 48 14.3
2011-08-24 08:53:41 51°12.991 2°37.687 351.7 1.1 52 14.2
2011-08-24 08:53:46 51°12.992 2°37.689 351.8 1 59 14.3
2011-08-24 08:53:50 51°12.992 2°37.69 352.1 1 66 14.3
2011-08-24 08:53:55 51°12.993 2°37.692 352.5 1 61 14.2
2011-08-24 08:54:00 51°12.994 2°37.694 352.9 1.2 48 14.4
2011-08-24 08:54:05 51°12.995 2°37.696 353.8 1.3 37 14.4
2011-08-24 08:54:10 51°12.997 2°37.698 354.9 1.3 40 14.4
2011-08-24 08:54:15 51°12.998 2°37.699 355.9 1.3 37 14.8
2011-08-24 08:54:20 51°12.999 2°37.701 356.8 1.3 45 14.9
2011-08-24 08:54:24 51°13 2°37.703 357.3 1.1 44 14.9
2011-08-24 08:54:29 51°13.001 2°37.704 357.5 1.1 49 15.1
2011-08-24 08:54:34 51°13.002 2°37.707 357.5 1 62 15.2
2011-08-24 08:54:39 51°13.002 2°37.708 357.5 0.9 65 14.8
2011-08-24 08:54:44 51°13.003 2°37.71 357.5 1 65 15
2011-08-24 08:54:48 51°13.003 2°37.712 357.8 0.9 63 15
2011-08-24 08:54:54 51°13.004 2°37.714 358 1 66 14.8
2011-08-24 08:54:59 51°13.005 2°37.716 358.5 1 64 14.8
2011-08-24 08:55:04 51°13.005 2°37.718 359 1 64 14.6
2011-08-24 08:55:08 51°13.006 2°37.719 359.3 0.9 65 14.4
2011-08-24 08:55:14 51°13.006 2°37.722 359.9 1 66 14.5
2011-08-24 08:55:19 51°13.007 2°37.724 0.3 1 63 14.4
2011-08-24 08:55:24 51°13.007 2°37.726 0.5 1 64 14.2
2011-08-24 08:55:28 51°13.008 2°37.727 0.8 1 66 14.4
2011-08-24 08:55:34 51°13.008 2°37.73 1 1 66 14.4
2011-08-24 08:55:39 51°13.009 2°37.732 1.2 1.1 65 14.4
2011-08-24 08:55:44 51°13.01 2°37.734 1.5 1 64 14.3
2011-08-24 08:55:48 51°13.01 2°37.735 1.6 1 65 14.3
2011-08-24 08:55:54 51°13.011 2°37.738 1.5 1 65 14.4
2011-08-24 08:55:59 51°13.011 2°37.74 1.7 1 63 14.4
2011-08-24 08:56:04 51°13.012 2°37.742 1.9 1.1 64 14.4
2011-08-24 08:56:09 51°13.013 2°37.744 2 1 66 14.4
2011-08-24 08:56:14 51°13.013 2°37.746 2 1 64 14.4
2011-08-24 08:56:19 51°13.014 2°37.748 1.9 1 63 14.2
2011-08-24 08:56:24 51°13.014 2°37.75 1.7 1.1 64 14.3
2011-08-24 08:56:29 51°13.015 2°37.752 1.7 1 65 14.4
2011-08-24 08:56:34 51°13.016 2°37.754 1.6 1 65 14.6
2011-08-24 08:56:39 51°13.016 2°37.756 1.6 1 66 14.5
2011-08-24 08:56:44 51°13.017 2°37.758 1.5 1 65 14.5
2011-08-24 08:56:48 51°13.017 2°37.76 1.5 1 64 14.4
2011-08-24 08:56:54 51°13.018 2°37.762 1.4 1 65 14.3
2011-08-24 08:56:59 51°13.019 2°37.765 1.1 1 65 14.5
2011-08-24 08:57:04 51°13.019 2°37.767 1 1 64 14.4
2011-08-24 08:57:08 51°13.02 2°37.768 0.8 1 64 14.3
2011-08-24 08:57:14 51°13.021 2°37.77 0.8 1 63 14.4
2011-08-24 08:57:19 51°13.021 2°37.773 0.7 1 64 14.5
2011-08-24 08:57:24 51°13.022 2°37.774 0.7 1 63 14.5
2011-08-24 08:57:28 51°13.022 2°37.776 0.7 1 63 14.4
2011-08-24 08:57:34 51°13.023 2°37.779 0.5 1 63 14.6
2011-08-24 08:57:39 51°13.024 2°37.781 0.4 1 62 14.6
2011-08-24 08:57:44 51°13.025 2°37.783 0.2 1 62 14.5
2011-08-24 08:57:49 51°13.025 2°37.785 0.1 1 60 14.5
2011-08-24 08:57:54 51°13.026 2°37.787 0.1 1 63 14.6
2011-08-24 08:57:59 51°13.026 2°37.788 359.9 1 61 14.5
2011-08-24 08:58:04 51°13.027 2°37.79 359.7 1 59 14.5
2011-08-24 08:58:09 51°13.028 2°37.792 359.7 1.1 59 14.5
2011-08-24 08:58:14 51°13.029 2°37.794 359.4 1 61 14.6
2011-08-24 08:58:19 51°13.029 2°37.796 359.2 1 61 14.4
2011-08-24 08:58:24 51°13.03 2°37.798 358.9 1 59 14.5
2011-08-24 08:58:29 51°13.031 2°37.8 358.6 1 59 14.5
2011-08-24 08:58:34 51°13.031 2°37.802 358.5 1 59 14.6
2011-08-24 08:58:39 51°13.032 2°37.804 358.2 1 58 14.5
2011-08-24 08:58:44 51°13.033 2°37.805 357.9 1 58 14.4
2011-08-24 08:58:48 51°13.033 2°37.807 357.5 1 58 14.6
2011-08-24 08:58:54 51°13.035 2°37.809 357.2 1 58 14.6
2011-08-24 08:58:59 51°13.035 2°37.811 356.9 1 57 14.4
2011-08-24 08:59:04 51°13.036 2°37.813 356.6 1 54 14.6
2011-08-24 08:59:09 51°13.037 2°37.815 356.3 1 55 14.5
2011-08-24 08:59:14 51°13.038 2°37.816 355.9 1 53 14.6
2011-08-24 08:59:19 51°13.038 2°37.818 355.7 1 54 14.6
2011-08-24 08:59:24 51°13.039 2°37.82 355.4 1 54 14.7
2011-08-24 08:59:29 51°13.04 2°37.821 355.2 1 52 14.6
2011-08-24 08:59:34 51°13.041 2°37.823 355 1 53 14.8
2011-08-24 08:59:39 51°13.042 2°37.825 354.6 1 54 14.9
2011-08-24 08:59:44 51°13.042 2°37.827 354.3 1 58 14.9
2011-08-24 08:59:48 51°13.043 2°37.828 354.1 1 56 14.7
2011-08-24 08:59:54 51°13.044 2°37.831 353.8 1.1 54 14.7
2011-08-24 08:59:59 51°13.045 2°37.832 353.6 1 53 14.6
2011-08-24 09:00:04 51°13.046 2°37.834 353.2 1.1 54 14.9
2011-08-24 09:00:08 51°13.047 2°37.836 353.1 1.1 55 14.9
2011-08-24 09:00:14 51°13.047 2°37.838 352.8 1 54 14.8
2011-08-24 09:00:19 51°13.048 2°37.84 352.5 1 54 14.7
2011-08-24 09:00:24 51°13.049 2°37.842 352.2 1 54 14.5
2011-08-24 09:00:28 51°13.05 2°37.843 351.9 1 54 14.9
2011-08-24 09:00:34 51°13.051 2°37.845 351.5 1.1 53 15
2011-08-24 09:00:39 51°13.052 2°37.847 351.3 1 54 14.8
2011-08-24 09:00:44 51°13.053 2°37.849 350.7 1.1 53 14.7
2011-08-24 09:00:49 51°13.054 2°37.851 350.2 1 52 14.8
2011-08-24 09:00:54 51°13.054 2°37.853 349.6 1 54 14.6
2011-08-24 09:00:59 51°13.055 2°37.854 349.2 1 56 14.7